Time;durP1;ratioP1;P1;durP2;ratioP2;P2;SDS_P1;SDS_P2;PMS_P1;PMS_P2;Temp;Humidity;BMP_temperature;BMP_pressure;BME280_temperature;BME280_humidity;BME280_pressure;Samples;Min_cycle;Max_cycle;Signal;HPM_P1;HPM_P2
2024/01/30 00:01:36;;;;;;;9.55;8.30;;;;;;;9.74;74.40;102532.44;5004951;28;20113;-60
2024/01/30 00:04:02;;;;;;;10.77;7.90;;;;;;;9.75;74.37;102537.78;4999988;28;20145;-60
2024/01/30 00:06:27;;;;;;;9.85;8.18;;;;;;;9.75;74.11;102537.78;5005062;28;20389;-59
2024/01/30 00:08:53;;;;;;;9.55;7.63;;;;;;;9.70;74.23;102533.91;5006179;28;20030;-59
2024/01/30 00:11:18;;;;;;;10.00;8.13;;;;;;;9.69;74.04;102541.38;5007811;28;20034;-59
2024/01/30 00:13:44;;;;;;;12.10;8.52;;;;;;;9.69;74.41;102532.19;5007958;28;20073;-59
2024/01/30 00:16:20;;;;;;;10.02;7.97;;;;;;;9.68;74.46;102536.03;5006632;28;20500;-59
2024/01/30 00:18:45;;;;;;;8.02;7.22;;;;;;;9.67;74.30;102529.66;5007646;28;20038;-59
2024/01/30 00:21:11;;;;;;;11.15;7.57;;;;;;;9.71;74.15;102535.63;5001690;28;20122;-59
2024/01/30 00:23:36;;;;;;;9.77;8.02;;;;;;;9.69;74.08;102534.97;5007385;28;20055;-59
2024/01/30 00:26:01;;;;;;;9.73;7.70;;;;;;;9.67;74.10;102529.66;5007661;28;20133;-60
2024/01/30 00:28:26;;;;;;;10.10;7.90;;;;;;;9.68;73.76;102533.28;5007353;28;20026;-60
2024/01/30 00:30:52;;;;;;;11.00;7.68;;;;;;;9.68;74.00;102525.81;5005799;28;20610;-60
2024/01/30 00:33:17;;;;;;;8.80;7.72;;;;;;;9.68;74.07;102533.28;5009306;28;20033;-60
2024/01/30 00:35:42;;;;;;;9.52;7.50;;;;;;;9.66;73.38;102524.28;5007147;28;20512;-59
2024/01/30 00:38:07;;;;;;;9.18;7.32;;;;;;;9.68;73.83;102522.19;5004400;28;20069;-60
2024/01/30 00:40:33;;;;;;;8.35;7.18;;;;;;;9.59;74.23;102515.97;5006922;28;20092;-59
2024/01/30 00:42:58;;;;;;;10.35;7.57;;;;;;;9.63;73.85;102522.81;5002142;28;20022;-59
2024/01/30 00:45:23;;;;;;;8.55;7.60;;;;;;;9.66;73.71;102521.50;5001474;28;20438;-59
2024/01/30 00:47:49;;;;;;;9.52;7.22;;;;;;;9.63;73.45;102517.25;5078669;28;20051;-59
2024/01/30 00:50:14;;;;;;;9.85;7.20;;;;;;;9.63;73.79;102521.91;5039486;28;20038;-59
2024/01/30 00:52:41;;;;;;;10.23;8.10;;;;;;;9.60;73.44;102520.44;5042982;28;20110;-59
2024/01/30 00:55:06;;;;;;;8.68;7.70;;;;;;;9.63;73.55;102510.84;5082628;28;20057;-60
2024/01/30 00:57:32;;;;;;;10.98;8.07;;;;;;;9.59;73.71;102514.03;5072355;28;20070;-59
2024/01/30 00:59:57;;;;;;;9.77;7.68;;;;;;;9.58;73.30;102506.75;5103669;28;20061;-59
2024/01/30 01:02:22;;;;;;;7.90;7.10;;;;;;;9.59;73.73;102516.81;5036924;28;20113;-59
2024/01/30 01:04:47;;;;;;;9.68;7.80;;;;;;;9.59;73.25;102511.28;5047150;28;20481;-59
2024/01/30 01:07:13;;;;;;;8.25;7.07;;;;;;;9.59;72.94;102510.41;5078934;28;20082;-59
2024/01/30 01:09:38;;;;;;;10.10;7.70;;;;;;;9.59;73.41;102514.03;5076681;28;20490;-60
2024/01/30 01:12:04;;;;;;;9.13;8.00;;;;;;;9.57;73.11;102513.38;5048694;28;20074;-59
2024/01/30 01:14:30;;;;;;;9.05;8.02;;;;;;;9.55;73.46;102511.91;5098038;28;20047;-59
2024/01/30 01:16:55;;;;;;;10.20;7.82;;;;;;;9.53;73.36;102506.53;5051589;28;20611;-59
2024/01/30 01:19:21;;;;;;;10.70;7.88;;;;;;;9.55;73.15;102507.19;5073494;28;20026;-59
2024/01/30 01:21:46;;;;;;;8.18;7.38;;;;;;;9.56;73.28;102506.13;5080978;28;20024;-59
2024/01/30 01:24:12;;;;;;;10.27;7.90;;;;;;;9.57;73.61;102506.97;5043917;28;20796;-59
2024/01/30 01:26:37;;;;;;;10.77;7.38;;;;;;;9.56;72.80;102489.50;5097689;28;20040;-59
2024/01/30 01:29:09;;;;;;;10.13;7.60;;;;;;;9.54;73.17;102499.06;5055723;28;20019;-59
2024/01/30 01:31:35;;;;;;;9.45;8.30;;;;;;;9.57;73.27;102493.13;5059487;28;20026;-59
2024/01/30 01:34:00;;;;;;;9.90;7.78;;;;;;;9.55;73.24;102504.44;5019970;28;20116;-59
2024/01/30 01:36:25;;;;;;;8.40;7.20;;;;;;;9.57;73.47;102501.44;5010087;28;20041;-59
2024/01/30 01:38:50;;;;;;;11.45;8.38;;;;;;;9.54;73.07;102497.16;5018385;28;20034;-59
2024/01/30 01:41:16;;;;;;;8.68;7.72;;;;;;;9.56;72.94;102488.66;5012298;28;20038;-59
2024/01/30 01:43:41;;;;;;;9.43;7.60;;;;;;;9.53;73.37;102489.06;5013280;28;20494;-59
2024/01/30 01:46:08;;;;;;;10.88;7.78;;;;;;;9.54;73.31;102491.59;5007519;28;20061;-59
2024/01/30 01:48:33;;;;;;;8.07;6.90;;;;;;;9.57;73.26;102482.88;5008887;28;20030;-59
2024/01/30 01:50:59;;;;;;;8.45;7.35;;;;;;;9.52;73.13;102479.88;5008377;28;20095;-59
2024/01/30 01:53:24;;;;;;;9.13;7.25;;;;;;;9.54;73.16;102482.44;5007852;28;20030;-59
2024/01/30 01:55:50;;;;;;;10.95;7.30;;;;;;;9.54;73.29;102472.19;5008608;28;20108;-59
2024/01/30 01:58:16;;;;;;;9.40;7.63;;;;;;;9.54;73.23;102477.75;5008175;28;20034;-59
2024/01/30 02:00:42;;;;;;;9.43;7.82;;;;;;;9.53;73.38;102470.50;5004469;28;20092;-59
2024/01/30 02:03:10;;;;;;;8.52;7.32;;;;;;;9.56;73.15;102474.78;5007978;28;20018;-59
2024/01/30 02:05:37;;;;;;;9.20;7.85;;;;;;;9.52;72.89;102477.13;5008656;28;20026;-59
2024/01/30 02:08:03;;;;;;;9.85;7.20;;;;;;;9.53;73.19;102464.09;5007356;28;20508;-59
2024/01/30 02:10:28;;;;;;;8.43;7.53;;;;;;;9.55;73.05;102464.78;5008808;28;20030;-59
2024/01/30 02:12:53;;;;;;;8.45;7.43;;;;;;;9.57;72.98;102469.03;5008502;28;20029;-59
2024/01/30 02:15:19;;;;;;;8.77;7.25;;;;;;;9.56;73.04;102469.25;5008130;28;20149;-59
2024/01/30 02:17:44;;;;;;;8.20;6.85;;;;;;;9.58;72.93;102467.94;5008333;28;20037;-59
2024/01/30 02:20:10;;;;;;;7.65;6.90;;;;;;;9.55;72.82;102467.53;5012953;28;20044;-59
2024/01/30 02:22:37;;;;;;;9.50;7.78;;;;;;;9.56;73.28;102470.09;5026433;28;20507;-59
2024/01/30 02:25:02;;;;;;;8.40;7.57;;;;;;;9.58;72.89;102481.81;5007973;28;20026;-59
2024/01/30 02:27:27;;;;;;;9.20;7.38;;;;;;;9.56;73.20;102470.09;5007289;28;20037;-59
2024/01/30 02:29:53;;;;;;;10.50;7.65;;;;;;;9.58;72.97;102478.19;5008097;28;20029;-59
2024/01/30 02:32:18;;;;;;;8.23;7.13;;;;;;;9.58;72.75;102475.41;5007999;28;20104;-60
2024/01/30 02:34:43;;;;;;;9.90;7.68;;;;;;;9.55;72.85;102467.53;5007232;28;20827;-59
2024/01/30 02:37:09;;;;;;;9.15;7.18;;;;;;;9.57;72.82;102468.16;5007493;28;20030;-59
2024/01/30 02:39:34;;;;;;;11.98;7.55;;;;;;;9.56;72.89;102461.78;5005102;28;20038;-58
2024/01/30 02:41:59;;;;;;;10.80;7.03;;;;;;;9.56;72.91;102460.94;4998271;28;20544;-59
2024/01/30 02:44:25;;;;;;;8.15;7.35;;;;;;;9.55;72.78;102465.63;5027712;28;20044;-59
2024/01/30 02:46:50;;;;;;;9.77;7.55;;;;;;;9.52;72.93;102462.41;5008386;28;20096;-59
2024/01/30 02:49:15;;;;;;;7.93;6.72;;;;;;;9.57;72.64;102459.84;5007462;28;20470;-59
2024/01/30 02:51:41;;;;;;;9.30;7.70;;;;;;;9.53;72.95;102458.56;5008346;28;20075;-59
2024/01/30 02:54:06;;;;;;;8.05;6.90;;;;;;;9.52;72.91;102457.72;5014473;28;20022;-59
2024/01/30 02:56:31;;;;;;;9.40;7.40;;;;;;;9.54;72.96;102458.34;5014127;28;20100;-59
2024/01/30 02:58:57;;;;;;;9.90;7.40;;;;;;;9.55;73.26;102459.22;5075743;28;20490;-59
2024/01/30 03:01:24;;;;;;;10.05;7.68;;;;;;;9.51;73.13;102449.59;5016618;28;20068;-59
2024/01/30 03:03:49;;;;;;;10.77;6.85;;;;;;;9.53;72.96;102453.03;5006451;28;20073;-59
2024/01/30 03:06:17;;;;;;;8.23;7.15;;;;;;;9.53;72.71;102455.78;5016598;28;20492;-59
2024/01/30 03:08:42;;;;;;;11.73;7.53;;;;;;;9.53;73.34;102459.41;5013991;28;20438;-59
2024/01/30 03:11:07;;;;;;;10.98;7.35;;;;;;;9.53;73.18;102448.31;5013129;28;20030;-59
2024/01/30 03:13:33;;;;;;;11.32;7.10;;;;;;;9.49;73.02;102437.88;5014307;28;20087;-59
2024/01/30 03:15:58;;;;;;;8.25;7.22;;;;;;;9.46;73.59;102436.34;5013655;28;20077;-59
2024/01/30 03:18:23;;;;;;;8.93;7.20;;;;;;;9.50;72.99;102432.09;5013493;28;20083;-59
2024/01/30 03:20:48;;;;;;;8.65;7.65;;;;;;;9.49;73.60;102433.16;5052081;28;20493;-59
2024/01/30 03:23:14;;;;;;;10.00;6.93;;;;;;;9.50;73.22;102423.78;5037253;28;20042;-59
2024/01/30 03:25:39;;;;;;;7.95;7.15;;;;;;;9.50;73.16;102434.03;5013738;28;20026;-59
2024/01/30 03:28:04;;;;;;;10.20;7.22;;;;;;;9.49;73.42;102432.31;5013885;28;20033;-59
2024/01/30 03:30:30;;;;;;;10.68;7.47;;;;;;;9.49;73.01;102432.31;5014341;28;20022;-59
2024/01/30 03:32:55;;;;;;;10.32;7.78;;;;;;;9.49;73.13;102427.63;5013248;28;20018;-59
2024/01/30 03:35:20;;;;;;;9.93;8.15;;;;;;;9.49;73.33;102421.22;5024201;28;20385;-59
2024/01/30 03:37:46;;;;;;;9.52;7.22;;;;;;;9.46;73.34;102433.56;5034177;28;20036;-59
2024/01/30 03:40:11;;;;;;;7.78;6.97;;;;;;;9.48;73.32;102417.63;5022663;28;20082;-59
2024/01/30 03:42:37;;;;;;;8.55;6.88;;;;;;;9.50;73.30;102431.25;5013847;28;20026;-59
2024/01/30 03:45:02;;;;;;;8.30;7.03;;;;;;;9.50;72.95;102429.31;5012987;28;20028;-59
2024/01/30 03:47:27;;;;;;;8.73;7.10;;;;;;;9.47;73.25;102424.22;5013652;28;20050;-59
2024/01/30 03:49:53;;;;;;;8.18;6.75;;;;;;;9.44;73.15;102429.31;5014002;28;20033;-59
2024/01/30 03:52:19;;;;;;;9.20;7.40;;;;;;;9.42;73.46;102435.06;5013149;28;20140;-59
2024/01/30 03:54:44;;;;;;;8.20;7.32;;;;;;;9.45;73.60;102440.19;5013865;28;20118;-59
2024/01/30 03:57:09;;;;;;;11.63;7.47;;;;;;;9.45;73.58;102437.41;5001440;28;20061;-59
2024/01/30 03:59:35;;;;;;;8.00;7.20;;;;;;;9.45;73.72;102442.13;5012668;28;20049;-59
2024/01/30 04:02:00;;;;;;;8.07;6.60;;;;;;;9.48;73.49;102436.16;5013242;28;20029;-59
2024/01/30 04:04:26;;;;;;;8.77;7.30;;;;;;;9.48;73.67;102442.56;5013825;28;20061;-59
2024/01/30 04:06:51;;;;;;;9.70;7.10;;;;;;;9.46;73.76;102446.59;5012048;28;20030;-59
2024/01/30 04:09:16;;;;;;;7.78;6.82;;;;;;;9.48;73.88;102434.25;5017004;28;20045;-59
2024/01/30 04:11:42;;;;;;;9.68;6.65;;;;;;;9.49;73.85;102437.88;5020156;28;20034;-59
2024/01/30 04:14:07;;;;;;;10.95;7.15;;;;;;;9.50;73.65;102437.66;5009480;28;20045;-59
2024/01/30 04:16:33;;;;;;;10.98;7.22;;;;;;;9.48;73.99;102436.16;5019571;28;20018;-59
2024/01/30 04:18:58;;;;;;;10.07;7.30;;;;;;;9.48;74.00;102425.06;5010327;28;20033;-59
2024/01/30 04:21:23;;;;;;;9.70;6.95;;;;;;;9.49;73.74;102424.84;5008093;28;20036;-59
2024/01/30 04:23:53;;;;;;;8.20;7.40;;;;;;;9.49;73.70;102432.31;5008993;28;20531;-59
2024/01/30 04:26:18;;;;;;;8.43;6.97;;;;;;;9.48;73.73;102425.94;5007957;28;20537;-59
2024/01/30 04:28:46;;;;;;;8.00;6.88;;;;;;;9.49;74.06;102427.63;5007880;28;20038;-59
2024/01/30 04:31:12;;;;;;;9.45;6.85;;;;;;;9.45;74.44;102425.47;5008550;28;20026;-59
2024/01/30 04:33:37;;;;;;;11.15;7.25;;;;;;;9.44;74.10;102419.09;5017708;28;20354;-59
2024/01/30 04:36:03;;;;;;;7.43;6.63;;;;;;;9.47;74.05;102406.72;5006850;28;20030;-59
2024/01/30 04:38:28;;;;;;;7.53;6.40;;;;;;;9.47;74.46;102413.13;5008516;28;20037;-59
2024/01/30 04:40:54;;;;;;;10.43;7.10;;;;;;;9.48;74.34;102409.28;5008642;28;20022;-59
2024/01/30 04:43:19;;;;;;;8.93;7.28;;;;;;;9.47;74.23;102402.06;5008133;28;20041;-59
2024/01/30 04:45:45;;;;;;;8.40;6.85;;;;;;;9.46;74.65;102400.31;5008569;28;20062;-59
2024/01/30 04:48:10;;;;;;;13.52;6.78;;;;;;;9.47;74.33;102402.06;5007287;28;20733;-59
2024/01/30 04:50:36;;;;;;;9.85;6.85;;;;;;;9.45;74.56;102398.63;5027022;28;20065;-59
2024/01/30 04:53:01;;;;;;;9.10;6.45;;;;;;;9.45;74.76;102390.31;5006830;28;20038;-59
2024/01/30 04:55:26;;;;;;;7.70;6.90;;;;;;;9.47;74.65;102384.53;5008974;28;20511;-59
2024/01/30 04:57:51;;;;;;;8.05;6.88;;;;;;;9.45;75.12;102392.22;5009547;28;20037;-59
2024/01/30 05:00:17;;;;;;;10.77;6.97;;;;;;;9.46;74.89;102405.88;5008713;28;20112;-58
2024/01/30 05:02:42;;;;;;;8.85;7.00;;;;;;;9.48;74.96;102402.91;5008603;28;20030;-58
2024/01/30 05:05:08;;;;;;;9.85;7.15;;;;;;;9.48;74.96;102395.44;5009315;28;20051;-58
2024/01/30 05:07:34;;;;;;;8.88;6.80;;;;;;;9.46;75.14;102394.78;5030913;28;20034;-58
2024/01/30 05:09:59;;;;;;;9.82;7.13;;;;;;;9.45;75.03;102398.63;5001397;28;20052;-59
2024/01/30 05:12:25;;;;;;;7.95;7.15;;;;;;;9.48;75.01;102403.75;5009732;28;20034;-58
2024/01/30 05:14:50;;;;;;;8.55;6.43;;;;;;;9.50;75.06;102401.63;5009030;28;20026;-59
2024/01/30 05:17:15;;;;;;;8.25;6.88;;;;;;;9.51;75.28;102408.00;5007640;28;20102;-58
2024/01/30 05:19:40;;;;;;;9.25;7.30;;;;;;;9.51;74.90;102411.66;5009302;28;20040;-58
2024/01/30 05:22:06;;;;;;;7.55;6.50;;;;;;;9.52;75.21;102401.41;5009083;28;20036;-59
2024/01/30 05:24:32;;;;;;;7.47;6.15;;;;;;;9.53;75.09;102401.19;5011225;28;20045;-59
2024/01/30 05:26:57;;;;;;;9.82;7.05;;;;;;;9.55;74.99;102404.63;5057794;28;20026;-59
2024/01/30 05:29:22;;;;;;;8.57;6.50;;;;;;;9.54;75.20;102399.28;5009118;28;20030;-59
2024/01/30 05:31:47;;;;;;;9.00;6.65;;;;;;;9.55;74.99;102401.88;5008537;28;20078;-59
2024/01/30 05:34:13;;;;;;;6.85;6.10;;;;;;;9.57;75.26;102396.09;5008606;28;20037;-60
2024/01/30 05:36:38;;;;;;;12.38;6.82;;;;;;;9.56;75.27;102400.78;5008217;28;20078;-59
2024/01/30 05:39:04;;;;;;;8.75;6.43;;;;;;;9.56;75.18;102403.56;5004373;28;20029;-59
2024/01/30 05:41:29;;;;;;;7.90;6.68;;;;;;;9.57;75.58;102391.41;4992375;28;20030;-59
2024/01/30 05:43:54;;;;;;;8.43;6.78;;;;;;;9.59;75.46;102399.53;5028677;28;20026;-59
2024/01/30 05:46:19;;;;;;;9.13;6.82;;;;;;;9.54;75.74;102397.34;5041077;28;20675;-59
2024/01/30 05:48:45;;;;;;;9.02;6.85;;;;;;;9.55;75.58;102407.41;5037206;28;20523;-59
2024/01/30 05:51:10;;;;;;;8.40;6.85;;;;;;;9.57;75.85;102405.25;5008341;28;20030;-59
2024/01/30 05:53:35;;;;;;;8.50;7.22;;;;;;;9.57;75.90;102396.09;5007548;28;20022;-59
2024/01/30 05:56:02;;;;;;;8.98;7.15;;;;;;;9.57;75.92;102402.50;5008395;28;20026;-59
2024/01/30 05:58:27;;;;;;;9.80;6.72;;;;;;;9.58;75.90;102400.56;5007953;28;20037;-59
2024/01/30 06:00:52;;;;;;;9.98;6.60;;;;;;;9.59;75.98;102400.38;5015814;28;20029;-59
2024/01/30 06:03:18;;;;;;;10.30;6.93;;;;;;;9.61;75.96;102402.94;5053841;28;20076;-59
2024/01/30 06:05:43;;;;;;;8.90;7.38;;;;;;;9.56;76.51;102406.34;4988088;28;20023;-59
2024/01/30 06:08:08;;;;;;;8.80;6.97;;;;;;;9.58;75.88;102401.41;5019449;28;20473;-59
2024/01/30 06:10:33;;;;;;;9.35;7.15;;;;;;;9.57;76.24;102396.94;5028367;28;20159;-59
2024/01/30 06:12:59;;;;;;;8.05;6.40;;;;;;;9.58;76.52;102397.81;5027421;28;20029;-59
2024/01/30 06:15:24;;;;;;;9.68;6.53;;;;;;;9.59;76.22;102405.06;5009455;28;20049;-59
2024/01/30 06:17:49;;;;;;;11.90;7.03;;;;;;;9.61;76.21;102402.09;5018220;28;20101;-59
2024/01/30 06:20:15;;;;;;;8.25;6.97;;;;;;;9.61;76.13;102408.47;4996185;28;20044;-59
2024/01/30 06:22:40;;;;;;;7.50;6.32;;;;;;;9.61;75.99;102408.47;5004864;28;20095;-58
2024/01/30 06:25:06;;;;;;;10.68;7.07;;;;;;;9.64;75.99;102410.84;4988454;28;20046;-59
2024/01/30 06:27:31;;;;;;;10.48;7.15;;;;;;;9.62;76.38;102412.09;4994846;28;20120;-58
2024/01/30 06:29:56;;;;;;;7.68;6.88;;;;;;;9.59;76.41;102419.78;4990523;28;20175;-59
2024/01/30 06:32:21;;;;;;;10.63;6.57;;;;;;;9.62;76.51;102417.63;4993696;28;20049;-59
2024/01/30 06:34:47;;;;;;;9.70;6.80;;;;;;;9.65;76.35;102417.22;5026991;28;20072;-59
2024/01/30 06:37:12;;;;;;;8.65;6.65;;;;;;;9.63;76.26;102417.47;5027613;28;20029;-58
2024/01/30 06:39:37;;;;;;;9.43;7.03;;;;;;;9.65;76.66;102429.16;5028075;28;20404;-59
2024/01/30 06:42:03;;;;;;;10.30;6.97;;;;;;;9.68;76.66;102422.38;5026938;28;20358;-59
2024/01/30 06:44:28;;;;;;;9.55;6.90;;;;;;;9.65;76.60;102423.63;5024860;28;20027;-58
2024/01/30 06:46:54;;;;;;;9.43;7.05;;;;;;;9.63;76.90;102427.66;5019945;28;20090;-58
2024/01/30 06:49:19;;;;;;;9.23;6.80;;;;;;;9.64;76.64;102410.84;5001244;28;20162;-59
2024/01/30 06:51:44;;;;;;;9.10;7.15;;;;;;;9.66;76.92;102428.09;5007658;28;20069;-59
2024/01/30 06:54:09;;;;;;;10.23;7.07;;;;;;;9.66;76.83;102418.94;5007915;28;20109;-59
2024/01/30 06:56:35;;;;;;;8.43;6.90;;;;;;;9.67;76.89;102424.28;5003456;28;20026;-59
2024/01/30 06:59:00;;;;;;;11.68;7.60;;;;;;;9.67;77.06;102442.81;5007938;28;20389;-59
2024/01/30 07:01:29;;;;;;;8.90;6.95;;;;;;;9.68;76.98;102448.16;5008021;28;20053;-59
2024/01/30 07:03:55;;;;;;;9.73;7.32;;;;;;;9.70;76.66;102457.13;4999682;28;20036;-58
2024/01/30 07:06:20;;;;;;;8.43;7.03;;;;;;;9.70;76.78;102454.34;5027339;28;20422;-59
2024/01/30 07:08:45;;;;;;;8.15;6.63;;;;;;;9.72;76.77;102456.94;5013497;28;20083;-59
2024/01/30 07:11:18;;;;;;;9.35;6.78;;;;;;;9.72;77.00;102463.31;4994374;28;20033;-59
2024/01/30 07:13:44;;;;;;;9.57;6.88;;;;;;;9.71;76.82;102467.16;5004367;28;20071;-59
2024/01/30 07:16:09;;;;;;;9.68;7.07;;;;;;;9.75;77.07;102464.84;5004326;28;20037;-59
2024/01/30 07:18:34;;;;;;;7.45;6.70;;;;;;;9.74;76.89;102463.97;5004595;28;20435;-59
2024/01/30 07:21:00;;;;;;;8.50;7.28;;;;;;;9.75;77.15;102467.63;5002958;28;20034;-59
2024/01/30 07:23:25;;;;;;;9.95;7.45;;;;;;;9.74;76.88;102471.44;4999812;28;20157;-58
2024/01/30 07:25:50;;;;;;;10.43;7.85;;;;;;;9.77;77.08;102468.25;5007351;28;20083;-58
2024/01/30 07:28:18;;;;;;;10.70;7.40;;;;;;;9.78;77.00;102481.03;5007665;28;20030;-59
2024/01/30 07:30:44;;;;;;;8.45;7.43;;;;;;;9.74;77.42;102476.97;5005785;28;20105;-59
2024/01/30 07:33:09;;;;;;;8.50;6.70;;;;;;;9.76;77.41;102469.31;4998983;28;20133;-59
2024/01/30 07:35:35;;;;;;;9.18;7.15;;;;;;;9.77;77.44;102482.09;4987662;28;20034;-60
2024/01/30 07:38:01;;;;;;;10.32;8.43;;;;;;;9.76;77.72;102484.03;5004362;28;20385;-60
2024/01/30 07:40:26;;;;;;;9.48;7.25;;;;;;;9.76;77.36;102478.47;5010387;28;20473;-60
2024/01/30 07:42:53;;;;;;;9.40;7.32;;;;;;;9.77;77.68;102488.50;5010733;28;20026;-61
2024/01/30 07:45:22;;;;;;;9.32;7.03;;;;;;;9.78;77.65;102481.88;5010242;28;20030;-60
2024/01/30 07:47:50;;;;;;;9.38;7.80;;;;;;;9.79;77.48;102489.16;5007501;28;20053;-59
2024/01/30 07:50:16;;;;;;;9.07;7.40;;;;;;;9.81;77.47;102486.16;5000800;28;20045;-59
2024/01/30 07:52:42;;;;;;;13.40;7.30;;;;;;;9.81;77.66;102486.16;4998664;28;20469;-60
2024/01/30 07:55:08;;;;;;;9.57;7.85;;;;;;;9.80;77.97;102495.56;5004521;28;20034;-60
2024/01/30 07:57:34;;;;;;;10.60;7.43;;;;;;;9.80;77.63;102496.41;4990793;28;20044;-60
2024/01/30 08:00:00;;;;;;;9.98;7.82;;;;;;;9.80;77.70;102506.66;4989869;28;20034;-60
2024/01/30 08:02:25;;;;;;;9.15;7.85;;;;;;;9.81;77.68;102508.34;5008230;28;20037;-60
2024/01/30 08:04:50;;;;;;;9.10;7.68;;;;;;;9.82;77.89;102504.50;5010873;28;20026;-60
2024/01/30 08:07:17;;;;;;;8.70;7.35;;;;;;;9.82;77.83;102507.28;5009095;28;20518;-60
2024/01/30 08:09:43;;;;;;;10.43;8.13;;;;;;;9.81;78.02;102503.66;5010323;28;20057;-61
2024/01/30 08:12:08;;;;;;;8.93;7.82;;;;;;;9.82;77.85;102508.16;5062190;28;20436;-60
2024/01/30 08:14:33;;;;;;;10.35;7.40;;;;;;;9.84;77.87;102505.19;5010105;28;20513;-60
2024/01/30 08:16:59;;;;;;;9.55;7.57;;;;;;;9.84;78.16;102508.81;5009974;28;20057;-60
2024/01/30 08:19:24;;;;;;;9.88;7.22;;;;;;;9.85;78.05;102506.88;5009652;28;20026;-59
2024/01/30 08:21:49;;;;;;;9.23;7.50;;;;;;;9.87;78.12;102518.63;5009955;28;20420;-59
2024/01/30 08:24:15;;;;;;;8.05;7.20;;;;;;;9.88;78.04;102513.94;5006185;28;20056;-60
2024/01/30 08:26:40;;;;;;;8.15;6.95;;;;;;;9.89;78.22;102499.84;5000937;28;20069;-59
2024/01/30 08:29:05;;;;;;;9.68;7.40;;;;;;;9.92;78.12;102515.22;5004611;28;20026;-59
2024/01/30 08:31:31;;;;;;;10.85;7.18;;;;;;;9.92;78.43;102510.53;5006221;28;20045;-59
2024/01/30 08:33:56;;;;;;;11.23;7.47;;;;;;;9.94;78.32;102510.31;5002936;28;20041;-59
2024/01/30 08:36:21;;;;;;;9.27;7.68;;;;;;;9.97;78.23;102507.13;5009989;28;20034;-59
2024/01/30 08:38:47;;;;;;;9.85;7.50;;;;;;;9.99;78.36;102514.19;5009187;28;20038;-59
2024/01/30 08:41:12;;;;;;;9.32;7.25;;;;;;;9.99;78.61;102519.75;5008818;28;20026;-59
2024/01/30 08:43:38;;;;;;;11.50;7.50;;;;;;;10.00;78.52;102513.13;5009795;28;20385;-59
2024/01/30 08:46:03;;;;;;;10.10;7.63;;;;;;;10.01;78.71;102516.75;5008980;28;20034;-59
2024/01/30 08:48:28;;;;;;;10.25;7.10;;;;;;;10.02;78.65;102513.78;5009387;28;20034;-58
2024/01/30 08:50:54;;;;;;;9.45;7.75;;;;;;;10.02;79.17;102516.56;5009576;28;20135;-57
2024/01/30 08:53:19;;;;;;;9.93;7.25;;;;;;;10.05;78.86;102509.72;5027638;28;20488;-59
2024/01/30 08:55:45;;;;;;;6.22;4.53;;;;;;;10.42;80.32;102505.56;5014235;28;20037;-59
2024/01/30 08:58:10;;;;;;;11.13;7.40;;;;;;;10.25;78.78;102510.63;5009513;28;20129;-60
2024/01/30 09:00:36;;;;;;;8.82;5.75;;;;;;;10.46;79.12;102512.41;5009421;28;20074;-60
2024/01/30 09:03:01;;;;;;;10.38;7.97;;;;;;;10.46;78.08;102506.84;5008603;28;20120;-59
2024/01/30 09:05:27;;;;;;;12.13;7.60;;;;;;;10.41;78.26;102514.94;5010049;28;20034;-60
2024/01/30 09:07:52;;;;;;;12.35;7.90;;;;;;;10.38;78.31;102520.94;5009444;28;20480;-60
2024/01/30 09:10:17;;;;;;;11.23;7.47;;;;;;;10.38;78.57;102514.53;5008276;28;20042;-59
2024/01/30 09:12:43;;;;;;;10.40;7.57;;;;;;;10.35;78.67;102514.94;5022341;28;20040;-59
2024/01/30 09:15:08;;;;;;;12.82;7.90;;;;;;;10.32;78.58;102514.28;5010763;28;20054;-59
2024/01/30 09:17:34;;;;;;;12.25;8.20;;;;;;;10.32;78.93;102519.00;5007757;28;20051;-60
2024/01/30 09:19:59;;;;;;;13.27;8.43;;;;;;;10.34;78.52;102536.31;5008637;28;20069;-59
2024/01/30 09:22:24;;;;;;;14.35;8.18;;;;;;;10.35;79.10;102526.06;5008049;28;20410;-60
2024/01/30 09:24:50;;;;;;;13.18;8.30;;;;;;;10.33;79.38;102534.56;5008958;28;20045;-59
2024/01/30 09:27:15;;;;;;;16.17;7.85;;;;;;;10.35;79.30;102535.22;5008369;28;20044;-59
2024/01/30 09:29:40;;;;;;;13.15;8.85;;;;;;;10.35;79.70;102531.59;5008263;28;20036;-59
2024/01/30 09:32:06;;;;;;;10.82;8.40;;;;;;;10.36;79.63;102539.69;5062726;28;20027;-60
2024/01/30 09:34:31;;;;;;;10.95;7.93;;;;;;;10.35;79.99;102532.44;5008170;28;20030;-59
2024/01/30 09:36:57;;;;;;;10.07;8.02;;;;;;;10.37;80.03;102535.00;5007854;28;20038;-60
2024/01/30 09:39:23;;;;;;;13.95;8.07;;;;;;;10.38;79.95;102543.13;5008492;28;20034;-59
2024/01/30 09:41:53;;;;;;;10.70;7.85;;;;;;;10.40;79.76;102546.53;5008223;28;20795;-59
2024/01/30 09:44:20;;;;;;;15.48;8.00;;;;;;;10.41;80.42;102542.69;5007928;28;20029;-60
2024/01/30 09:46:47;;;;;;;11.07;8.00;;;;;;;10.43;79.59;102551.69;5008755;28;20050;-60
2024/01/30 09:49:16;;;;;;;15.05;8.80;;;;;;;10.46;79.98;102556.81;5040383;28;20034;-59
2024/01/30 09:51:41;;;;;;;11.88;8.25;;;;;;;10.46;80.09;102562.38;5040840;28;20389;-60
2024/01/30 09:54:09;;;;;;;9.85;7.80;;;;;;;10.48;80.29;102554.66;5014817;28;20026;-60
2024/01/30 09:56:35;;;;;;;10.18;7.88;;;;;;;10.50;80.12;102551.69;5008888;28;20029;-60
2024/01/30 09:59:00;;;;;;;11.30;7.85;;;;;;;10.51;80.03;102557.03;5007133;28;20145;-60
2024/01/30 10:01:25;;;;;;;9.93;7.97;;;;;;;10.50;80.12;102547.00;5008024;28;20037;-60
2024/01/30 10:03:52;;;;;;;14.88;8.27;;;;;;;10.53;80.08;102552.13;5007549;28;20028;-60
2024/01/30 10:06:18;;;;;;;10.43;8.10;;;;;;;10.54;80.33;102555.75;5007624;28;20108;-59
2024/01/30 10:08:43;;;;;;;11.20;8.50;;;;;;;10.53;80.37;102560.47;5003869;28;20571;-60
2024/01/30 10:11:09;;;;;;;11.93;7.55;;;;;;;10.53;80.15;102563.25;4995840;28;20050;-60
2024/01/30 10:13:35;;;;;;;11.55;8.15;;;;;;;10.53;80.20;102554.91;4988090;28;20037;-60
2024/01/30 10:16:02;;;;;;;9.82;7.90;;;;;;;10.55;80.17;102557.47;5004655;28;20139;-59
2024/01/30 10:18:27;;;;;;;11.85;8.30;;;;;;;10.56;80.44;102568.34;5008494;28;20049;-60
2024/01/30 10:20:53;;;;;;;14.82;8.75;;;;;;;10.56;80.57;102565.56;5007557;28;20542;-60
2024/01/30 10:23:19;;;;;;;11.35;8.30;;;;;;;10.60;80.34;102565.16;5007714;28;20485;-60
2024/01/30 10:25:44;;;;;;;11.13;8.43;;;;;;;10.59;80.69;102567.09;5008169;28;20033;-60
2024/01/30 10:28:10;;;;;;;13.18;8.98;;;;;;;10.60;80.80;102573.50;5023769;28;20757;-59
2024/01/30 10:30:35;;;;;;;12.57;8.52;;;;;;;10.62;80.52;102575.00;5025405;28;20468;-59
2024/01/30 10:33:01;;;;;;;13.73;8.95;;;;;;;10.63;80.77;102584.19;5033652;28;20059;-59
2024/01/30 10:35:27;;;;;;;11.95;8.85;;;;;;;10.67;80.69;102582.69;5028000;28;20022;-59
2024/01/30 10:37:56;;;;;;;11.90;8.65;;;;;;;10.69;80.83;102586.09;5027722;28;20028;-59
2024/01/30 10:40:27;;;;;;;15.07;9.15;;;;;;;10.69;81.06;102578.66;5027209;28;20037;-59
2024/01/30 10:42:55;;;;;;;13.70;8.77;;;;;;;10.71;80.91;102578.41;5016396;28;20038;-59
2024/01/30 10:45:22;;;;;;;14.02;9.20;;;;;;;10.70;81.10;102577.56;4999034;28;20023;-59
2024/01/30 10:47:53;;;;;;;12.93;8.60;;;;;;;10.71;80.93;102582.06;5002801;28;20396;-59
2024/01/30 10:50:19;;;;;;;13.55;9.20;;;;;;;10.72;81.13;102589.31;4993823;28;20084;-59
2024/01/30 10:52:46;;;;;;;12.80;9.13;;;;;;;10.73;81.29;102582.72;4993054;28;20113;-60
2024/01/30 10:55:13;;;;;;;15.05;9.55;;;;;;;10.75;80.98;102576.94;4987217;28;20034;-59
2024/01/30 10:57:39;;;;;;;16.60;9.27;;;;;;;10.76;80.98;102573.06;4991474;28;20548;-60
2024/01/30 11:00:11;;;;;;;12.65;9.38;;;;;;;10.78;81.05;102585.69;5006817;28;20215;-60
2024/01/30 11:02:44;;;;;;;11.25;8.75;;;;;;;10.81;81.17;102587.19;5006443;28;20057;-59
2024/01/30 11:05:11;;;;;;;14.30;8.90;;;;;;;10.82;81.10;102584.19;5007006;28;20033;-59
2024/01/30 11:07:39;;;;;;;14.23;9.60;;;;;;;10.81;81.02;102590.84;5006908;28;20086;-60
2024/01/30 11:10:06;;;;;;;15.27;9.02;;;;;;;10.82;81.06;102583.34;5025072;28;20461;-60
2024/01/30 11:12:36;;;;;;;17.42;9.80;;;;;;;10.80;81.16;102593.81;5007647;28;20078;-60
2024/01/30 11:15:04;;;;;;;13.07;8.95;;;;;;;10.80;81.60;102604.91;4995066;28;20042;-59
2024/01/30 11:17:40;;;;;;;15.25;9.68;;;;;;;10.80;81.43;102586.31;4999744;28;20030;-60
2024/01/30 11:20:09;;;;;;;13.13;9.95;;;;;;;10.80;81.17;102585.47;5010861;28;20038;-59
2024/01/30 11:22:35;;;;;;;16.95;10.57;;;;;;;10.80;81.03;102574.34;5005534;28;20029;-59